Rockford, Ohio
Current Conditions -  °F | °C
As of 7:14 PM on Saturday 25 Oct 2014 (Local Time) from KAXV Reporting Station
Clear Clear  
Wind Chill: 63°   Ceiling: Unl
Heat Index: 63°   Visibility: 10mi
Dew Point: 45°   Wind: 7mph
Humidity: 52%   Direction: 260°W
Pressure: 29.88"   Gusts: NA
Location:  40.69°N, 84.65°W
Report Text: KAXV 252314Z AUTO 26006KT 10SM CLR 17/07 A2988 RMK AO2
Loading
Personal Weather Stations






























Interactive Weather Map
Tropical Storm Tracking
New forecast layout! Learn more

10-Day Weather Forecast

Advertisements
Track Severe Weather on mobile